sensor_id;sensor_type;location;lat;lon;timestamp;pressure;altitude;pressure_sealevel;temperature;humidity
36254;BME280;22291;52.250;21.228;2023-05-18T01:23:22;101065.83;;;7.27;89.39
36254;BME280;22291;52.250;21.228;2023-05-18T01:28:28;101069.08;;;7.24;89.63
36254;BME280;22291;52.250;21.228;2023-05-18T01:30:55;101061.52;;;7.23;89.70
36254;BME280;22291;52.250;21.228;2023-05-18T01:33:23;101058.31;;;7.24;89.61
36254;BME280;22291;52.250;21.228;2023-05-18T01:35:50;101065.29;;;7.25;89.70
36254;BME280;22291;52.250;21.228;2023-05-18T01:38:20;101066.38;;;7.24;89.70
36254;BME280;22291;52.250;21.228;2023-05-18T01:40:55;101068.81;;;7.25;89.75
36254;BME280;22291;52.250;21.228;2023-05-18T01:43:45;101068.53;;;7.24;89.89
36254;BME280;22291;52.250;21.228;2023-05-18T01:49:05;101076.05;;;7.25;89.80
36254;BME280;22291;52.250;21.228;2023-05-18T01:51:35;101078.49;;;7.24;89.68
36254;BME280;22291;52.250;21.228;2023-05-18T01:54:07;101082.53;;;7.24;89.48
36254;BME280;22291;52.250;21.228;2023-05-18T01:56:36;101085.73;;;7.23;89.57
36254;BME280;22291;52.250;21.228;2023-05-18T01:59:04;101082.78;;;7.25;89.73
36254;BME280;22291;52.250;21.228;2023-05-18T02:01:31;101083.88;;;7.24;89.61
36254;BME280;22291;52.250;21.228;2023-05-18T02:03:57;101079.01;;;7.23;89.57
36254;BME280;22291;52.250;21.228;2023-05-18T02:06:23;101081.19;;;7.24;89.54
36254;BME280;22291;52.250;21.228;2023-05-18T02:08:50;101088.17;;;7.22;89.45
36254;BME280;22291;52.250;21.228;2023-05-18T02:11:17;101083.05;;;7.21;89.31
36254;BME280;22291;52.250;21.228;2023-05-18T02:13:43;101083.05;;;7.21;89.33
36254;BME280;22291;52.250;21.228;2023-05-18T02:16:09;101086.02;;;7.19;89.09
36254;BME280;22291;52.250;21.228;2023-05-18T02:18:36;101083.58;;;7.18;88.85
36254;BME280;22291;52.250;21.228;2023-05-18T02:21:06;101087.34;;;7.17;88.69
36254;BME280;22291;52.250;21.228;2023-05-18T02:23:34;101083.31;;;7.14;88.67
36254;BME280;22291;52.250;21.228;2023-05-18T02:26:01;101086.53;;;7.11;88.70
36254;BME280;22291;52.250;21.228;2023-05-18T02:28:27;101086.54;;;7.08;88.57
36254;BME280;22291;52.250;21.228;2023-05-18T02:30:53;101089.22;;;7.03;88.39
36254;BME280;22291;52.250;21.228;2023-05-18T02:33:19;101094.58;;;7.01;88.44
36254;BME280;22291;52.250;21.228;2023-05-18T02:35:47;101098.33;;;7.00;88.66
36254;BME280;22291;52.250;21.228;2023-05-18T02:38:13;101097.53;;;6.97;88.68
36254;BME280;22291;52.250;21.228;2023-05-18T02:40:39;101100.20;;;6.94;88.78
36254;BME280;22291;52.250;21.228;2023-05-18T02:43:06;101099.13;;;6.92;88.86
36254;BME280;22291;52.250;21.228;2023-05-18T02:45:32;101101.53;;;6.89;88.88
36254;BME280;22291;52.250;21.228;2023-05-18T02:47:58;101101.00;;;6.87;88.92
36254;BME280;22291;52.250;21.228;2023-05-18T02:50:25;101097.48;;;6.84;88.99
36254;BME280;22291;52.250;21.228;2023-05-18T02:52:51;101104.73;;;6.81;89.24
36254;BME280;22291;52.250;21.228;2023-05-18T02:55:17;101099.07;;;6.77;89.18
36254;BME280;22291;52.250;21.228;2023-05-18T02:57:44;101095.05;;;6.75;89.23
36254;BME280;22291;52.250;21.228;2023-05-18T03:00:13;101097.20;;;6.72;89.32
36254;BME280;22291;52.250;21.228;2023-05-18T03:02:42;101096.62;;;6.70;89.35
36254;BME280;22291;52.250;21.228;2023-05-18T03:05:09;101101.75;;;6.69;89.51
36254;BME280;22291;52.250;21.228;2023-05-18T03:07:35;101113.02;;;6.69;89.72
36254;BME280;22291;52.250;21.228;2023-05-18T03:10:02;101115.19;;;6.69;89.67
36254;BME280;22291;52.250;21.228;2023-05-18T03:12:29;101119.48;;;6.70;89.91
36254;BME280;22291;52.250;21.228;2023-05-18T03:14:55;101114.36;;;6.69;89.95
36254;BME280;22291;52.250;21.228;2023-05-18T03:17:21;101115.19;;;6.69;89.96
36254;BME280;22291;52.250;21.228;2023-05-18T03:19:47;101120.02;;;6.70;89.82
36254;BME280;22291;52.250;21.228;2023-05-18T03:22:14;101124.60;;;6.69;89.91
36254;BME280;22291;52.250;21.228;2023-05-18T03:24:40;101121.37;;;6.70;89.98
36254;BME280;22291;52.250;21.228;2023-05-18T03:27:07;101120.56;;;6.72;90.18
36254;BME280;22291;52.250;21.228;2023-05-18T03:29:34;101116.27;;;6.71;90.12
36254;BME280;22291;52.250;21.228;2023-05-18T03:32:00;101120.30;;;6.73;90.27
36254;BME280;22291;52.250;21.228;2023-05-18T03:34:26;101127.56;;;6.76;90.31
36254;BME280;22291;52.250;21.228;2023-05-18T03:36:52;101128.14;;;6.78;90.51
36254;BME280;22291;52.250;21.228;2023-05-18T03:39:19;101130.53;;;6.79;90.42
36254;BME280;22291;52.250;21.228;2023-05-18T03:41:46;101128.13;;;6.80;90.43
36254;BME280;22291;52.250;21.228;2023-05-18T03:44:12;101139.97;;;6.82;90.27
36254;BME280;22291;52.250;21.228;2023-05-18T03:46:39;101135.68;;;6.83;90.25
36254;BME280;22291;52.250;21.228;2023-05-18T03:49:05;101138.91;;;6.85;90.35
36254;BME280;22291;52.250;21.228;2023-05-18T03:51:32;101142.13;;;6.87;90.43
36254;BME280;22291;52.250;21.228;2023-05-18T03:53:59;101142.42;;;6.88;90.29
36254;BME280;22291;52.250;21.228;2023-05-18T03:56:25;101148.34;;;6.90;90.45
36254;BME280;22291;52.250;21.228;2023-05-18T03:58:51;101144.87;;;6.95;90.55
36254;BME280;22291;52.250;21.228;2023-05-18T04:01:19;101148.64;;;6.99;90.80
36254;BME280;22291;52.250;21.228;2023-05-18T04:03:47;101148.11;;;7.02;90.90
36254;BME280;22291;52.250;21.228;2023-05-18T04:06:15;101171.58;;;7.17;90.94
36254;BME280;22291;52.250;21.228;2023-05-18T04:08:42;101148.14;;;7.13;90.90
36254;BME280;22291;52.250;21.228;2023-05-18T04:11:10;101153.83;;;7.19;90.74
36254;BME280;22291;52.250;21.228;2023-05-18T04:13:37;101157.85;;;7.21;90.70
36254;BME280;22291;52.250;21.228;2023-05-18T04:16:05;101164.05;;;7.27;90.92
36254;BME280;22291;52.250;21.228;2023-05-18T04:18:33;101163.80;;;7.34;90.89
36254;BME280;22291;52.250;21.228;2023-05-18T04:21:00;101165.70;;;7.38;90.74
36254;BME280;22291;52.250;21.228;2023-05-18T04:23:28;101172.44;;;7.43;90.55
36254;BME280;22291;52.250;21.228;2023-05-18T04:25:54;101169.76;;;7.48;90.52
36254;BME280;22291;52.250;21.228;2023-05-18T04:28:21;101175.95;;;7.54;90.06
36254;BME280;22291;52.250;21.228;2023-05-18T04:30:47;101172.75;;;7.60;90.36
36254;BME280;22291;52.250;21.228;2023-05-18T04:33:13;101180.83;;;7.65;90.19
36254;BME280;22291;52.250;21.228;2023-05-18T04:35:40;101177.34;;;7.70;89.87
36254;BME280;22291;52.250;21.228;2023-05-18T04:38:07;101181.92;;;7.77;90.33
36254;BME280;22291;52.250;21.228;2023-05-18T04:40:35;101184.09;;;7.85;90.03
36254;BME280;22291;52.250;21.228;2023-05-18T04:43:03;101185.17;;;7.92;89.87
36254;BME280;22291;52.250;21.228;2023-05-18T04:45:30;101181.94;;;7.97;89.77
36254;BME280;22291;52.250;21.228;2023-05-18T04:47:58;101187.85;;;8.04;89.03
36254;BME280;22291;52.250;21.228;2023-05-18T04:50:26;101185.17;;;8.07;88.62
36254;BME280;22291;52.250;21.228;2023-05-18T04:52:52;101182.18;;;8.14;88.77
36254;BME280;22291;52.250;21.228;2023-05-18T04:55:22;101187.84;;;8.20;88.65
36254;BME280;22291;52.250;21.228;2023-05-18T04:57:52;101193.77;;;8.22;87.68
36254;BME280;22291;52.250;21.228;2023-05-18T05:00:25;101192.41;;;8.27;87.77
36254;BME280;22291;52.250;21.228;2023-05-18T05:02:54;101192.95;;;8.32;87.87
36254;BME280;22291;52.250;21.228;2023-05-18T05:05:22;101193.23;;;8.38;87.50
36254;BME280;22291;52.250;21.228;2023-05-18T05:07:50;101197.03;;;8.45;87.76
36254;BME280;22291;52.250;21.228;2023-05-18T05:10:18;101196.47;;;8.50;87.45
36254;BME280;22291;52.250;21.228;2023-05-18T05:12:45;101199.16;;;8.55;87.21
36254;BME280;22291;52.250;21.228;2023-05-18T05:15:13;101196.72;;;8.62;86.95
36254;BME280;22291;52.250;21.228;2023-05-18T05:17:40;101208.02;;;8.66;86.80
36254;BME280;22291;52.250;21.228;2023-05-18T05:20:08;101203.14;;;8.73;86.94
36254;BME280;22291;52.250;21.228;2023-05-18T05:22:35;101210.69;;;8.76;86.15
36254;BME280;22291;52.250;21.228;2023-05-18T05:25:01;101222.52;;;8.88;85.90
36254;BME280;22291;52.250;21.228;2023-05-18T05:27:27;101199.36;;;8.82;86.19
36254;BME280;22291;52.250;21.228;2023-05-18T05:29:53;101204.72;;;8.90;86.64
36254;BME280;22291;52.250;21.228;2023-05-18T05:32:19;101207.92;;;8.97;86.16
36254;BME280;22291;52.250;21.228;2023-05-18T05:34:45;101203.86;;;9.02;85.93
36254;BME280;22291;52.250;21.228;2023-05-18T05:37:13;101215.70;;;9.09;85.52
36254;BME280;22291;52.250;21.228;2023-05-18T05:39:40;101216.23;;;9.13;85.59
36254;BME280;22291;52.250;21.228;2023-05-18T05:42:06;101218.61;;;9.23;85.93
36254;BME280;22291;52.250;21.228;2023-05-18T05:44:33;101217.77;;;9.32;85.95
36254;BME280;22291;52.250;21.228;2023-05-18T05:47:00;101226.64;;;9.41;85.49
36254;BME280;22291;52.250;21.228;2023-05-18T05:49:27;101221.45;;;9.49;85.56
36254;BME280;22291;52.250;21.228;2023-05-18T05:51:53;101226.00;;;9.57;85.11
36254;BME280;22291;52.250;21.228;2023-05-18T05:54:20;101230.81;;;9.65;84.98
36254;BME280;22291;52.250;21.228;2023-05-18T05:56:46;101226.73;;;9.72;84.54
36254;BME280;22291;52.250;21.228;2023-05-18T05:59:12;101225.59;;;9.79;83.91
36254;BME280;22291;52.250;21.228;2023-05-18T06:01:39;101229.37;;;9.83;83.44
36254;BME280;22291;52.250;21.228;2023-05-18T06:04:05;101229.34;;;9.85;83.09
36254;BME280;22291;52.250;21.228;2023-05-18T06:06:33;101230.68;;;9.88;82.64
36254;BME280;22291;52.250;21.228;2023-05-18T06:08:59;101233.35;;;9.90;82.58
36254;BME280;22291;52.250;21.228;2023-05-18T06:11:25;101230.92;;;9.91;82.05
36254;BME280;22291;52.250;21.228;2023-05-18T06:13:51;101240.91;;;9.94;82.26
36254;BME280;22291;52.250;21.228;2023-05-18T06:16:18;101246.79;;;10.01;81.98
36254;BME280;22291;52.250;21.228;2023-05-18T06:18:44;101247.86;;;10.05;81.64
36254;BME280;22291;52.250;21.228;2023-05-18T06:21:10;101235.14;;;10.05;81.33
36254;BME280;22291;52.250;21.228;2023-05-18T06:23:37;101243.21;;;10.10;81.11
36254;BME280;22291;52.250;21.228;2023-05-18T06:26:03;101234.78;;;10.15;81.00
36254;BME280;22291;52.250;21.228;2023-05-18T06:28:30;101238.52;;;10.21;81.25
36254;BME280;22291;52.250;21.228;2023-05-18T06:30:57;101242.25;;;10.28;80.88
36254;BME280;22291;52.250;21.228;2023-05-18T06:33:24;101243.06;;;10.34;80.85
36254;BME280;22291;52.250;21.228;2023-05-18T06:35:51;101240.31;;;10.39;80.11
36254;BME280;22291;52.250;21.228;2023-05-18T06:38:17;101247.55;;;10.46;80.57
36254;BME280;22291;52.250;21.228;2023-05-18T06:40:44;101245.59;;;10.52;79.90
36254;BME280;22291;52.250;21.228;2023-05-18T06:43:10;101247.17;;;10.58;79.61
36254;BME280;22291;52.250;21.228;2023-05-18T06:45:36;101249.03;;;10.60;79.23
36254;BME280;22291;52.250;21.228;2023-05-18T06:48:04;101246.84;;;10.64;79.08
36254;BME280;22291;52.250;21.228;2023-05-18T06:50:31;101252.44;;;10.71;78.75
36254;BME280;22291;52.250;21.228;2023-05-18T06:52:57;101257.00;;;10.75;78.88
36254;BME280;22291;52.250;21.228;2023-05-18T06:55:23;101260.16;;;10.82;78.78
36254;BME280;22291;52.250;21.228;2023-05-18T06:57:50;101258.52;;;10.87;77.73
36254;BME280;22291;52.250;21.228;2023-05-18T07:00:19;101258.52;;;10.87;76.97
36254;BME280;22291;52.250;21.228;2023-05-18T07:02:46;101259.59;;;10.88;76.95
36254;BME280;22291;52.250;21.228;2023-05-18T07:05:12;101260.34;;;10.91;76.91
36254;BME280;22291;52.250;21.228;2023-05-18T07:07:39;101262.98;;;10.99;76.99
36254;BME280;22291;52.250;21.228;2023-05-18T07:10:08;101260.48;;;11.05;76.60
36254;BME280;22291;52.250;21.228;2023-05-18T07:12:34;101268.27;;;11.12;76.34
36254;BME280;22291;52.250;21.228;2023-05-18T07:15:01;101264.89;;;11.20;76.17
36254;BME280;22291;52.250;21.228;2023-05-18T07:17:29;101270.29;;;11.23;75.76
36254;BME280;22291;52.250;21.228;2023-05-18T07:19:56;101268.02;;;11.32;75.98
36254;BME280;22291;52.250;21.228;2023-05-18T07:22:22;101267.04;;;11.45;75.98
36254;BME280;22291;52.250;21.228;2023-05-18T07:24:48;101266.91;;;11.55;75.69
36254;BME280;22291;52.250;21.228;2023-05-18T07:27:15;101271.39;;;11.65;74.80
36254;BME280;22291;52.250;21.228;2023-05-18T07:29:41;101272.38;;;11.71;74.83
36254;BME280;22291;52.250;21.228;2023-05-18T07:32:07;101274.13;;;11.81;74.31
36254;BME280;22291;52.250;21.228;2023-05-18T07:34:33;101280.82;;;11.86;73.73
36254;BME280;22291;52.250;21.228;2023-05-18T07:37:00;101276.17;;;11.89;73.12
36254;BME280;22291;52.250;21.228;2023-05-18T07:39:26;101282.91;;;11.94;72.70
36254;BME280;22291;52.250;21.228;2023-05-18T07:41:55;101276.85;;;12.00;73.22
36254;BME280;22291;52.250;21.228;2023-05-18T07:44:21;101287.02;;;12.11;72.84
36254;BME280;22291;52.250;21.228;2023-05-18T07:46:47;101286.64;;;12.18;72.33
36254;BME280;22291;52.250;21.228;2023-05-18T07:49:13;101283.02;;;12.22;71.66
36254;BME280;22291;52.250;21.228;2023-05-18T07:51:39;101276.72;;;12.27;71.95
36254;BME280;22291;52.250;21.228;2023-05-18T07:54:07;101288.46;;;12.39;71.71
36254;BME280;22291;52.250;21.228;2023-05-18T07:56:33;101292.95;;;12.46;71.71
36254;BME280;22291;52.250;21.228;2023-05-18T07:59:00;101294.42;;;12.55;71.69
36254;BME280;22291;52.250;21.228;2023-05-18T08:01:26;101291.09;;;12.60;71.52
36254;BME280;22291;52.250;21.228;2023-05-18T08:03:55;101292.51;;;12.71;71.21
36254;BME280;22291;52.250;21.228;2023-05-18T08:06:21;101298.67;;;12.77;70.31
36254;BME280;22291;52.250;21.228;2023-05-18T08:08:48;101302.56;;;12.87;70.71
36254;BME280;22291;52.250;21.228;2023-05-18T08:11:16;101305.88;;;12.98;70.50
36254;BME280;22291;52.250;21.228;2023-05-18T08:13:42;101309.76;;;13.08;69.97
36254;BME280;22291;52.250;21.228;2023-05-18T08:16:08;101303.13;;;13.15;69.24
36254;BME280;22291;52.250;21.228;2023-05-18T08:18:35;101313.90;;;13.20;69.18
36254;BME280;22291;52.250;21.228;2023-05-18T08:21:01;101316.02;;;13.23;68.99
36254;BME280;22291;52.250;21.228;2023-05-18T08:23:28;101302.97;;;13.22;68.73
36254;BME280;22291;52.250;21.228;2023-05-18T08:25:55;101298.98;;;13.31;68.51
36254;BME280;22291;52.250;21.228;2023-05-18T08:28:23;101309.75;;;13.39;67.99
36254;BME280;22291;52.250;21.228;2023-05-18T08:30:50;101307.26;;;13.40;67.54
36254;BME280;22291;52.250;21.228;2023-05-18T08:33:17;101315.94;;;13.42;67.20
36254;BME280;22291;52.250;21.228;2023-05-18T08:35:43;101311.80;;;13.44;67.60
36254;BME280;22291;52.250;21.228;2023-05-18T08:38:09;101317.39;;;13.51;66.84
36254;BME280;22291;52.250;21.228;2023-05-18T08:40:39;101313.61;;;13.49;66.75
36254;BME280;22291;52.250;21.228;2023-05-18T08:43:19;101312.71;;;13.54;66.90
36254;BME280;22291;52.250;21.228;2023-05-18T08:45:54;101319.52;;;13.65;67.04
36254;BME280;22291;52.250;21.228;2023-05-18T08:48:23;101311.45;;;13.74;66.49
36254;BME280;22291;52.250;21.228;2023-05-18T08:50:53;101318.13;;;13.79;66.87
36254;BME280;22291;52.250;21.228;2023-05-18T08:53:23;101316.36;;;13.86;66.55
36254;BME280;22291;52.250;21.228;2023-05-18T08:55:53;101308.16;;;13.99;66.85
36254;BME280;22291;52.250;21.228;2023-05-18T08:58:21;101307.08;;;14.12;66.35
36254;BME280;22291;52.250;21.228;2023-05-18T09:00:51;101310.61;;;14.24;65.86
36254;BME280;22291;52.250;21.228;2023-05-18T09:03:21;101305.77;;;14.32;65.88
36254;BME280;22291;52.250;21.228;2023-05-18T09:05:50;101308.39;;;14.37;65.24
36254;BME280;22291;52.250;21.228;2023-05-18T09:08:18;101307.57;;;14.48;64.92
36254;BME280;22291;52.250;21.228;2023-05-18T09:10:46;101304.41;;;14.54;64.99
36254;BME280;22291;52.250;21.228;2023-05-18T09:13:14;101310.59;;;14.69;65.29
36254;BME280;22291;52.250;21.228;2023-05-18T09:15:45;101313.48;;;14.84;65.53
36254;BME280;22291;52.250;21.228;2023-05-18T09:18:12;101313.16;;;14.97;64.72
36254;BME280;22291;52.250;21.228;2023-05-18T09:20:38;101313.99;;;15.06;64.20
36254;BME280;22291;52.250;21.228;2023-05-18T09:23:06;101309.88;;;15.17;63.70
36254;BME280;22291;52.250;21.228;2023-05-18T09:25:32;101308.71;;;15.29;63.88
36254;BME280;22291;52.250;21.228;2023-05-18T09:28:02;101313.78;;;15.42;62.92
36254;BME280;22291;52.250;21.228;2023-05-18T09:30:29;101308.18;;;15.47;62.43
36254;BME280;22291;52.250;21.228;2023-05-18T09:32:56;101312.69;;;15.52;62.11
36254;BME280;22291;52.250;21.228;2023-05-18T09:35:24;101310.07;;;15.58;62.21
36254;BME280;22291;52.250;21.228;2023-05-18T09:37:50;101314.23;;;15.64;61.33
36254;BME280;22291;52.250;21.228;2023-05-18T09:40:18;101312.64;;;15.63;61.51
36254;BME280;22291;52.250;21.228;2023-05-18T09:42:45;101311.19;;;15.66;61.11
36254;BME280;22291;52.250;21.228;2023-05-18T09:45:22;101309.09;;;15.63;60.78
36254;BME280;22291;52.250;21.228;2023-05-18T09:47:51;101308.23;;;15.65;60.40
36254;BME280;22291;52.250;21.228;2023-05-18T09:50:19;101320.73;;;15.66;60.36
36254;BME280;22291;52.250;21.228;2023-05-18T09:52:46;101313.70;;;15.74;60.73
36254;BME280;22291;52.250;21.228;2023-05-18T09:55:16;101314.69;;;15.86;60.71
36254;BME280;22291;52.250;21.228;2023-05-18T09:57:45;101318.72;;;15.89;59.54
36254;BME280;22291;52.250;21.228;2023-05-18T10:00:14;101317.98;;;15.86;59.92
36254;BME280;22291;52.250;21.228;2023-05-18T10:02:43;101317.77;;;15.94;60.15
36254;BME280;22291;52.250;21.228;2023-05-18T10:05:21;101323.13;;;16.05;59.72
36254;BME280;22291;52.250;21.228;2023-05-18T10:07:54;101310.30;;;16.14;59.49
36254;BME280;22291;52.250;21.228;2023-05-18T10:10:24;101320.17;;;16.13;59.00
36254;BME280;22291;52.250;21.228;2023-05-18T10:12:52;101315.03;;;16.20;59.09
36254;BME280;22291;52.250;21.228;2023-05-18T10:15:21;101315.10;;;16.35;58.51
36254;BME280;22291;52.250;21.228;2023-05-18T10:17:50;101310.09;;;16.46;59.08
36254;BME280;22291;52.250;21.228;2023-05-18T10:20:20;101311.84;;;16.59;58.88
36254;BME280;22291;52.250;21.228;2023-05-18T10:22:49;101313.98;;;16.68;58.11
36254;BME280;22291;52.250;21.228;2023-05-18T10:25:18;101310.89;;;16.78;58.19
36254;BME280;22291;52.250;21.228;2023-05-18T10:27:48;101308.66;;;16.89;57.69
36254;BME280;22291;52.250;21.228;2023-05-18T10:30:18;101315.74;;;17.05;58.30
36254;BME280;22291;52.250;21.228;2023-05-18T10:32:46;101310.44;;;17.24;57.71
36254;BME280;22291;52.250;21.228;2023-05-18T10:35:13;101317.17;;;17.41;56.90
36254;BME280;22291;52.250;21.228;2023-05-18T10:37:44;101312.69;;;17.51;56.64
36254;BME280;22291;52.250;21.228;2023-05-18T10:40:16;101307.16;;;17.60;56.13
36254;BME280;22291;52.250;21.228;2023-05-18T10:42:44;101306.83;;;17.62;55.68
36254;BME280;22291;52.250;21.228;2023-05-18T10:45:11;101308.58;;;17.66;55.13
36254;BME280;22291;52.250;21.228;2023-05-18T10:47:39;101307.20;;;17.66;54.85
36254;BME280;22291;52.250;21.228;2023-05-18T10:50:09;101308.64;;;17.79;55.14
36254;BME280;22291;52.250;21.228;2023-05-18T10:52:37;101314.90;;;17.88;55.27
36254;BME280;22291;52.250;21.228;2023-05-18T10:55:06;101308.06;;;17.79;54.11
36254;BME280;22291;52.250;21.228;2023-05-18T10:57:51;101312.38;;;17.89;54.05
36254;BME280;22291;52.250;21.228;2023-05-18T11:00:20;101306.62;;;18.03;54.35
36254;BME280;22291;52.250;21.228;2023-05-18T11:02:48;101309.29;;;18.11;54.08
36254;BME280;22291;52.250;21.228;2023-05-18T11:05:24;101304.92;;;18.25;54.06
36254;BME280;22291;52.250;21.228;2023-05-18T11:07:59;101295.73;;;18.42;53.78
36254;BME280;22291;52.250;21.228;2023-05-18T11:10:44;101303.41;;;18.55;53.50
36254;BME280;22291;52.250;21.228;2023-05-18T11:13:14;101298.28;;;18.66;53.12
36254;BME280;22291;52.250;21.228;2023-05-18T11:18:47;101298.98;;;18.69;52.26
36254;BME280;22291;52.250;21.228;2023-05-18T11:21:30;101296.58;;;18.67;51.66
36254;BME280;22291;52.250;21.228;2023-05-18T11:27:13;101295.78;;;18.67;51.55
36254;BME280;22291;52.250;21.228;2023-05-18T11:29:45;101299.45;;;18.77;51.39
36254;BME280;22291;52.250;21.228;2023-05-18T11:32:22;101297.09;;;18.88;50.78
36254;BME280;22291;52.250;21.228;2023-05-18T11:34:53;101295.98;;;18.95;50.63
36254;BME280;22291;52.250;21.228;2023-05-18T11:40:10;101291.65;;;19.19;50.74
36254;BME280;22291;52.250;21.228;2023-05-18T11:42:38;101290.50;;;19.26;49.75
36254;BME280;22291;52.250;21.228;2023-05-18T11:45:10;101287.63;;;19.35;49.49
36254;BME280;22291;52.250;21.228;2023-05-18T11:47:39;101284.89;;;19.35;49.28
36254;BME280;22291;52.250;21.228;2023-05-18T11:50:08;101290.24;;;19.44;49.60
36254;BME280;22291;52.250;21.228;2023-05-18T11:52:44;101287.47;;;19.56;48.92
36254;BME280;22291;52.250;21.228;2023-05-18T11:55:17;101287.47;;;19.62;48.73
36254;BME280;22291;52.250;21.228;2023-05-18T11:57:47;101280.84;;;19.57;48.09
36254;BME280;22291;52.250;21.228;2023-05-18T12:00:19;101285.41;;;19.53;47.47
36254;BME280;22291;52.250;21.228;2023-05-18T12:02:48;101291.62;;;19.50;47.64
36254;BME280;22291;52.250;21.228;2023-05-18T12:05:14;101288.39;;;19.54;47.36
36254;BME280;22291;52.250;21.228;2023-05-18T12:07:41;101288.05;;;19.55;47.24
36254;BME280;22291;52.250;21.228;2023-05-18T12:10:12;101296.16;;;19.58;47.44
36254;BME280;22291;52.250;21.228;2023-05-18T12:12:46;101292.96;;;19.62;47.18
36254;BME280;22291;52.250;21.228;2023-05-18T12:15:14;101285.96;;;19.71;47.18
36254;BME280;22291;52.250;21.228;2023-05-18T12:17:44;101289.38;;;19.86;47.20
36254;BME280;22291;52.250;21.228;2023-05-18T12:20:21;101297.56;;;19.99;47.14
36254;BME280;22291;52.250;21.228;2023-05-18T12:22:55;101297.06;;;20.09;46.36
36254;BME280;22291;52.250;21.228;2023-05-18T12:25:24;101284.27;;;20.07;45.63
36254;BME280;22291;52.250;21.228;2023-05-18T12:27:53;101292.89;;;19.99;45.09
36254;BME280;22291;52.250;21.228;2023-05-18T12:30:26;101291.17;;;20.01;45.32
36254;BME280;22291;52.250;21.228;2023-05-18T12:32:55;101288.29;;;20.03;45.03
36254;BME280;22291;52.250;21.228;2023-05-18T12:35:27;101290.69;;;20.05;44.74
36254;BME280;22291;52.250;21.228;2023-05-18T12:37:57;101286.92;;;20.03;44.90
36254;BME280;22291;52.250;21.228;2023-05-18T12:40:35;101289.55;;;20.06;44.62
36254;BME280;22291;52.250;21.228;2023-05-18T12:43:04;101284.86;;;20.00;44.55
36254;BME280;22291;52.250;21.228;2023-05-18T12:45:32;101290.06;;;19.89;44.64
36254;BME280;22291;52.250;21.228;2023-05-18T12:48:09;101290.31;;;19.78;44.50
36254;BME280;22291;52.250;21.228;2023-05-18T12:50:49;101287.58;;;19.66;44.71
36254;BME280;22291;52.250;21.228;2023-05-18T12:53:18;101280.06;;;19.56;44.33
36254;BME280;22291;52.250;21.228;2023-05-18T12:55:56;101291.14;;;19.48;44.76
36254;BME280;22291;52.250;21.228;2023-05-18T12:58:24;101290.83;;;19.43;44.97
36254;BME280;22291;52.250;21.228;2023-05-18T13:00:52;101284.30;;;19.35;45.13
36254;BME280;22291;52.250;21.228;2023-05-18T13:03:20;101286.94;;;19.32;44.68
36254;BME280;22291;52.250;21.228;2023-05-18T13:06:09;101281.13;;;19.21;45.04
36254;BME280;22291;52.250;21.228;2023-05-18T13:08:30;101284.80;;;19.19;45.07
36254;BME280;22291;52.250;21.228;2023-05-18T13:11:03;101288.89;;;19.13;45.54
36254;BME280;22291;52.250;21.228;2023-05-18T13:13:34;101283.17;;;18.99;44.98
36254;BME280;22291;52.250;21.228;2023-05-18T13:16:02;101298.83;;;18.87;45.11
36254;BME280;22291;52.250;21.228;2023-05-18T13:18:30;101293.07;;;18.73;45.20
36254;BME280;22291;52.250;21.228;2023-05-18T13:20:59;101286.97;;;18.55;45.02
36254;BME280;22291;52.250;21.228;2023-05-18T13:23:28;101283.96;;;18.36;44.84
36254;BME280;22291;52.250;21.228;2023-05-18T13:25:57;101283.90;;;18.23;44.99
36254;BME280;22291;52.250;21.228;2023-05-18T13:28:26;101284.66;;;18.11;45.31
36254;BME280;22291;52.250;21.228;2023-05-18T13:30:52;101282.45;;;17.99;45.09
36254;BME280;22291;52.250;21.228;2023-05-18T13:33:20;101283.19;;;17.87;45.38
36254;BME280;22291;52.250;21.228;2023-05-18T13:35:51;101283.80;;;17.78;45.65
36254;BME280;22291;52.250;21.228;2023-05-18T13:38:18;101286.11;;;17.67;45.73
36254;BME280;22291;52.250;21.228;2023-05-18T13:40:46;101286.30;;;17.55;45.93
36254;BME280;22291;52.250;21.228;2023-05-18T13:43:12;101286.68;;;17.45;46.30
36254;BME280;22291;52.250;21.228;2023-05-18T13:45:39;101282.28;;;17.38;46.30
36254;BME280;22291;52.250;21.228;2023-05-18T13:48:07;101284.52;;;17.30;46.44
36254;BME280;22291;52.250;21.228;2023-05-18T13:50:37;101282.05;;;17.22;46.39
36254;BME280;22291;52.250;21.228;2023-05-18T13:53:04;101285.55;;;17.16;46.53
36254;BME280;22291;52.250;21.228;2023-05-18T13:55:32;101286.53;;;17.12;46.31
36254;BME280;22291;52.250;21.228;2023-05-18T13:57:58;101282.94;;;17.05;46.75
36254;BME280;22291;52.250;21.228;2023-05-18T14:00:26;101284.49;;;17.00;46.91
36254;BME280;22291;52.250;21.228;2023-05-18T14:02:53;101285.66;;;16.90;46.60
36254;BME280;22291;52.250;21.228;2023-05-18T14:05:19;101283.17;;;16.83;47.04
36254;BME280;22291;52.250;21.228;2023-05-18T14:07:46;101281.52;;;16.84;47.45
36254;BME280;22291;52.250;21.228;2023-05-18T14:10:14;101286.98;;;16.84;47.36
36254;BME280;22291;52.250;21.228;2023-05-18T14:12:40;101286.41;;;16.85;47.95
36254;BME280;22291;52.250;21.228;2023-05-18T14:15:11;101288.02;;;16.86;47.72
36254;BME280;22291;52.250;21.228;2023-05-18T14:17:40;101287.20;;;16.85;47.94
36254;BME280;22291;52.250;21.228;2023-05-18T14:20:11;101282.92;;;16.81;48.22
36254;BME280;22291;52.250;21.228;2023-05-18T14:22:39;101289.14;;;16.85;48.69
36254;BME280;22291;52.250;21.228;2023-05-18T14:25:09;101284.25;;;16.84;48.33